ěÝzenÝ letovÚho provozu ╚eskÚ republiky
Letiste: LKTB Aktualizace: 17.04.2021 20:00:27  UTC
 METAR LKTB 17.04. 20:00 ...
METAR LKTB 172000Z 36006KT 9999 FEW022 OVC031 06/01 Q1019 NOSIG RMK REG QNH 1017=
 TAF LKTB 17.04. 17:00 ...
TAF LKTB 171700Z 1718/1900 05004KT 9999 OVC025      TEMPO 1718/1806 5000 -RA BR BKN012      PROB30 TEMPO 1800/1806 3000 -DZ BR BKN007      BECMG 1808/1810 05008KT 9999 BKN030      BECMG 1816/1818 CAVOK      TEMPO 1818/1900 06012G24KT=